Terminal Aerodrome Forecast
Issued by NWS Newport/Morehead City, NC

Home | Current Version | Previous Version | Graphics & Text | Print | Product List | Glossary On
Versions: 1 2 3 4 5 6 7 8 9 10 11 12 13 14 15 16 17
000
FTUS42 KMHX 271731 AAB
TAFEWN
TAF AMD
KEWN 271731Z 2718/2818 20011KT P6SM FEW090
     FM280300 19008KT P6SM BKN090
     FM280800 20009KT P6SM SCT010 BKN060
     FM281500 21010KT P6SM SCT050 SCT200=

USA.gov is the U.S. government's official web portal to all federal, state and local government web resources and services.